createdAt,value
2022-09-11T00:01:00.539Z,19.67
2022-09-11T00:08:53.873Z,18.23
2022-09-11T00:21:06.028Z,19.03
2022-09-11T00:24:11.094Z,21.17
2022-09-11T00:27:12.957Z,19.03
2022-09-11T00:30:14.756Z,20.67
2022-09-11T00:33:16.474Z,23.43
2022-09-11T00:36:24.441Z,22.67
2022-09-11T00:39:26.311Z,22.07
2022-09-11T00:42:28.079Z,24.07
2022-09-11T00:45:30.035Z,23.60
2022-09-11T00:49:24.731Z,20.93
2022-09-11T00:53:03.280Z,23.63
2022-09-11T00:56:09.583Z,18.70
2022-09-11T00:59:55.460Z,21.53
2022-09-11T01:02:57.874Z,17.83
2022-09-11T01:06:00.534Z,20.10
2022-09-11T01:09:04.021Z,28.67
2022-09-11T01:12:14.481Z,24.13
2022-09-11T01:15:36.037Z,23.30
2022-09-11T01:19:19.412Z,27.93
2022-09-11T01:22:49.990Z,28.97
2022-09-11T01:26:22.853Z,27.57
2022-09-11T01:29:30.719Z,25.40
2022-09-11T01:32:41.347Z,26.63
2022-09-11T01:36:05.988Z,24.20
2022-09-11T01:39:08.824Z,23.37
2022-09-11T01:42:16.759Z,22.67
2022-09-11T01:45:20.013Z,32.37
2022-09-11T01:48:25.957Z,25.03
2022-09-11T01:56:24.997Z,26.40
2022-09-11T01:59:37.425Z,25.40
2022-09-11T02:02:46.172Z,21.67
2022-09-11T02:05:59.594Z,30.67
2022-09-11T02:09:06.483Z,29.23
2022-09-11T02:12:13.043Z,28.43
2022-09-11T02:15:16.227Z,35.73
2022-09-11T02:18:26.765Z,32.43
2022-09-11T02:21:29.645Z,32.27
2022-09-11T02:24:31.565Z,35.83
2022-09-11T02:27:33.726Z,31.27
2022-09-11T02:30:37.740Z,40.17
2022-09-11T02:33:41.926Z,52.07
2022-09-11T02:37:03.146Z,37.90
2022-09-11T02:40:47.113Z,34.37
2022-09-11T02:44:03.906Z,57.80
2022-09-11T02:47:17.816Z,50.63
2022-09-11T02:50:34.830Z,39.53
2022-09-11T02:54:15.553Z,55.80
2022-09-11T02:57:43.554Z,34.63
2022-09-11T03:00:47.864Z,42.30
2022-09-11T03:03:50.193Z,45.97
2022-09-11T03:06:53.284Z,34.57
2022-09-11T03:09:54.981Z,50.53
2022-09-11T03:12:59.701Z,49.27
2022-09-11T03:16:04.634Z,40.67
2022-09-11T03:19:07.204Z,52.50
2022-09-11T03:22:09.102Z,48.93
2022-09-11T03:25:11.737Z,36.03
2022-09-11T03:28:14.211Z,36.50
2022-09-11T03:31:17.403Z,40.67
2022-09-11T03:35:11.888Z,40.43
2022-09-11T03:38:13.553Z,28.73
2022-09-11T03:41:16.204Z,38.90
2022-09-11T03:44:17.977Z,40.43
2022-09-11T03:47:22.079Z,35.00
2022-09-11T03:50:23.763Z,26.30
2022-09-11T03:53:27.020Z,53.40
2022-09-11T03:56:29.136Z,32.53
2022-09-11T03:59:30.836Z,25.00
2022-09-11T04:02:32.725Z,23.67
2022-09-11T04:05:34.408Z,27.20
2022-09-11T04:08:37.103Z,42.60
2022-09-11T04:11:40.055Z,38.77
2022-09-11T04:14:50.243Z,33.27
2022-09-11T04:17:52.677Z,29.67
2022-09-11T04:20:54.440Z,27.97
2022-09-11T04:23:56.876Z,29.83
2022-09-11T04:27:01.298Z,37.83
2022-09-11T04:30:06.069Z,30.20
2022-09-11T04:33:08.644Z,24.97
2022-09-11T04:36:13.196Z,26.33
2022-09-11T04:39:14.976Z,26.53
2022-09-11T04:42:18.576Z,32.30
2022-09-11T04:45:20.402Z,29.10
2022-09-11T04:48:22.368Z,40.57
2022-09-11T04:51:25.761Z,38.17
2022-09-11T04:54:27.603Z,32.80
2022-09-11T04:57:30.210Z,32.93
2022-09-11T05:00:33.712Z,25.83
2022-09-11T05:03:35.608Z,25.37
2022-09-11T05:06:37.905Z,33.90
2022-09-11T05:09:44.433Z,50.77
2022-09-11T05:12:47.022Z,36.37
2022-09-11T05:15:48.827Z,36.60
2022-09-11T05:18:53.115Z,45.80
2022-09-11T05:21:56.437Z,34.47
2022-09-11T05:24:59.005Z,41.10
2022-09-11T05:28:00.897Z,31.20
2022-09-11T05:31:12.348Z,40.70
2022-09-11T05:34:14.092Z,40.03
2022-09-11T05:37:16.113Z,37.33
2022-09-11T05:40:20.204Z,41.13
2022-09-11T05:43:22.348Z,56.97
2022-09-11T05:46:25.934Z,28.83
2022-09-11T05:49:31.561Z,34.17
2022-09-11T05:52:35.109Z,29.17
2022-09-11T05:55:37.872Z,34.90
2022-09-11T05:58:40.325Z,28.50
2022-09-11T06:01:43.130Z,27.20
2022-09-11T06:04:56.577Z,28.30
2022-09-11T06:08:01.366Z,34.17
2022-09-11T06:11:07.499Z,33.60
2022-09-11T06:14:10.230Z,36.17
2022-09-11T06:17:13.270Z,31.00
2022-09-11T06:20:15.269Z,32.73
2022-09-11T06:23:21.563Z,30.33
2022-09-11T06:26:26.136Z,32.57
2022-09-11T06:29:28.708Z,26.67
2022-09-11T06:32:30.397Z,31.00
2022-09-11T06:35:32.457Z,25.00
2022-09-11T06:38:34.712Z,29.23
2022-09-11T06:41:37.195Z,31.27
2022-09-11T06:44:47.633Z,38.27
2022-09-11T06:47:52.080Z,27.37
2022-09-11T06:50:54.295Z,33.47
2022-09-11T06:53:57.889Z,31.23
2022-09-11T06:57:02.177Z,34.60
2022-09-11T07:00:04.107Z,27.77
2022-09-11T07:03:11.760Z,36.33
2022-09-11T07:06:15.250Z,29.60
2022-09-11T07:09:19.919Z,34.37
2022-09-11T07:12:27.033Z,29.87
2022-09-11T07:15:31.957Z,25.80
2022-09-11T07:18:39.388Z,30.87
2022-09-11T07:21:45.305Z,29.67
2022-09-11T07:24:47.172Z,29.47
2022-09-11T07:27:51.817Z,27.73
2022-09-11T07:30:54.575Z,28.77
2022-09-11T07:33:57.118Z,31.83
2022-09-11T07:37:00.455Z,35.43
2022-09-11T07:40:03.695Z,38.03
2022-09-11T07:43:06.319Z,37.83
2022-09-11T07:46:09.977Z,34.40
2022-09-11T07:49:11.713Z,33.67
2022-09-11T07:52:18.370Z,38.30
2022-09-11T07:55:26.413Z,38.53
2022-09-11T07:58:33.908Z,36.37
2022-09-11T08:01:35.924Z,34.40
2022-09-11T08:04:39.636Z,38.93
2022-09-11T08:07:41.287Z,36.97
2022-09-11T08:10:43.490Z,37.43
2022-09-11T08:13:50.774Z,36.20
2022-09-11T08:16:54.353Z,37.17
2022-09-11T08:19:57.017Z,38.20
2022-09-11T08:22:58.878Z,36.20
2022-09-11T08:26:08.733Z,33.17
2022-09-11T08:29:12.527Z,36.77
2022-09-11T08:32:14.887Z,36.93
2022-09-11T08:35:16.845Z,32.80
2022-09-11T08:38:18.751Z,37.50
2022-09-11T08:41:41.948Z,35.13
2022-09-11T08:44:44.622Z,35.40
2022-09-11T08:47:57.076Z,33.13
2022-09-11T08:50:59.220Z,32.73
2022-09-11T08:54:03.361Z,35.80
2022-09-11T08:57:25.276Z,43.33
2022-09-11T09:00:32.964Z,30.47
2022-09-11T09:04:14.735Z,35.57
2022-09-11T09:07:35.101Z,35.20
2022-09-11T09:10:36.716Z,34.17
2022-09-11T09:13:45.780Z,34.87
2022-09-11T09:16:59.544Z,33.33
2022-09-11T09:20:29.821Z,40.47
2022-09-11T09:23:39.952Z,34.27
2022-09-11T09:26:41.947Z,33.30
2022-09-11T09:29:47.073Z,33.27
2022-09-11T09:33:00.373Z,40.30
2022-09-11T09:36:20.977Z,34.63
2022-09-11T09:39:23.959Z,33.80
2022-09-11T09:42:47.509Z,35.13
2022-09-11T09:45:50.276Z,32.67
2022-09-11T09:48:52.170Z,32.77
2022-09-11T09:51:58.902Z,39.50
2022-09-11T09:55:06.736Z,32.90
2022-09-11T09:58:08.438Z,36.03
2022-09-11T10:01:45.984Z,32.30
2022-09-11T10:05:12.752Z,32.00
2022-09-11T10:08:34.287Z,33.90
2022-09-11T10:11:36.037Z,31.10
2022-09-11T10:14:52.180Z,32.73
2022-09-11T10:18:17.031Z,32.60
2022-09-11T10:21:33.637Z,27.77
2022-09-11T10:24:35.323Z,30.07
2022-09-11T10:27:52.983Z,34.70
2022-09-11T10:30:59.240Z,29.93
2022-09-11T10:34:01.358Z,32.50
2022-09-11T10:37:27.549Z,29.00
2022-09-11T10:40:29.503Z,30.73
2022-09-11T10:43:46.607Z,30.43
2022-09-11T10:47:03.240Z,29.20
2022-09-11T10:50:23.211Z,27.13
2022-09-11T10:53:25.812Z,26.57
2022-09-11T10:56:27.994Z,25.83
2022-09-11T10:59:57.722Z,28.80
2022-09-11T11:03:04.279Z,27.77
2022-09-11T11:06:27.506Z,23.33
2022-09-11T11:09:54.345Z,25.53
2022-09-11T11:13:19.569Z,27.77
2022-09-11T11:16:39.952Z,29.57
2022-09-11T11:20:10.788Z,29.00
2022-09-11T11:23:18.102Z,29.77
2022-09-11T11:26:22.907Z,27.10
2022-09-11T11:29:45.495Z,25.67
2022-09-11T11:33:21.567Z,25.17
2022-09-11T11:36:35.483Z,28.43
2022-09-11T11:39:57.675Z,24.33
2022-09-11T11:43:05.364Z,24.27
2022-09-11T11:46:12.890Z,27.43
2022-09-11T11:49:35.362Z,28.23
2022-09-11T11:52:55.427Z,23.00
2022-09-11T11:56:24.365Z,25.97
2022-09-11T11:59:58.351Z,26.87
2022-09-11T12:03:19.940Z,25.30
2022-09-11T12:06:21.649Z,26.47
2022-09-11T12:09:23.453Z,26.20
2022-09-11T12:12:28.580Z,24.90
2022-09-11T12:15:35.584Z,25.50
2022-09-11T12:18:38.479Z,23.10
2022-09-11T12:21:42.523Z,22.40
2022-09-11T12:24:58.524Z,20.03
2022-09-11T12:28:20.281Z,21.00
2022-09-11T12:31:22.042Z,18.67
2022-09-11T12:34:43.257Z,18.13
2022-09-11T12:37:54.059Z,18.17
2022-09-11T12:40:59.846Z,20.43
2022-09-11T12:44:04.422Z,21.03
2022-09-11T12:47:11.173Z,21.30
2022-09-11T12:50:14.251Z,18.57
2022-09-11T12:53:23.597Z,15.97
2022-09-11T12:56:27.687Z,16.23
2022-09-11T12:59:38.488Z,16.60
2022-09-11T13:02:44.470Z,19.20
2022-09-11T13:06:02.095Z,16.97
2022-09-11T13:09:04.829Z,18.10
2022-09-11T13:12:18.911Z,16.60
2022-09-11T13:15:43.387Z,15.40
2022-09-11T13:18:45.323Z,14.00
2022-09-11T13:21:52.121Z,14.83
2022-09-11T13:25:12.401Z,14.57
2022-09-11T13:28:20.987Z,15.70
2022-09-11T13:31:34.604Z,14.50
2022-09-11T13:34:36.416Z,12.90
2022-09-11T13:37:45.360Z,15.00
2022-09-11T13:40:56.797Z,26.63
2022-09-11T13:44:02.919Z,12.10
2022-09-11T13:47:07.374Z,14.80
2022-09-11T13:50:15.545Z,12.13
2022-09-11T13:53:19.719Z,11.03
2022-09-11T13:56:47.475Z,14.07
2022-09-11T13:59:54.889Z,12.60
2022-09-11T14:02:56.593Z,15.37
2022-09-11T14:06:00.969Z,16.30
2022-09-11T14:09:02.739Z,18.40
2022-09-11T14:12:04.728Z,12.37
2022-09-11T14:15:20.263Z,13.13
2022-09-11T14:19:07.372Z,13.17
2022-09-11T14:22:21.805Z,11.30
2022-09-11T14:25:24.200Z,12.80
2022-09-11T14:29:00.398Z,16.23
2022-09-11T14:32:31.656Z,15.60
2022-09-11T14:35:35.641Z,13.07
2022-09-11T14:38:38.151Z,12.67
2022-09-11T14:41:43.920Z,11.00
2022-09-11T14:44:45.561Z,10.13
2022-09-11T14:47:47.170Z,10.23
2022-09-11T14:51:24.099Z,7.80
2022-09-11T14:54:31.032Z,8.80
2022-09-11T14:57:35.103Z,9.37
2022-09-11T15:00:36.890Z,10.43
2022-09-11T15:03:39.035Z,8.23
2022-09-11T15:06:40.720Z,8.63
2022-09-11T15:09:43.060Z,7.93
2022-09-11T15:12:45.321Z,6.97
2022-09-11T15:15:50.935Z,12.47
2022-09-11T15:18:54.403Z,9.53
2022-09-11T15:21:56.811Z,9.17
2022-09-11T15:24:59.888Z,9.83
2022-09-11T15:28:01.811Z,8.33
2022-09-11T15:31:04.211Z,8.17
2022-09-11T15:34:07.304Z,8.60
2022-09-11T15:37:09.543Z,7.07
2022-09-11T15:40:11.710Z,9.97
2022-09-11T15:43:13.908Z,9.03
2022-09-11T15:46:16.285Z,7.03
2022-09-11T15:49:21.608Z,8.20
2022-09-11T15:52:23.291Z,7.80
2022-09-11T15:55:27.208Z,7.97
2022-09-11T15:58:28.837Z,11.93
2022-09-11T16:01:33.086Z,7.60
2022-09-11T16:04:34.932Z,10.83
2022-09-11T16:07:36.553Z,9.17
2022-09-11T16:10:38.592Z,9.63
2022-09-11T16:13:40.429Z,10.00
2022-09-11T16:16:42.137Z,8.80
2022-09-11T16:19:43.839Z,10.93
2022-09-11T16:22:45.651Z,11.03
2022-09-11T16:25:47.323Z,6.60
2022-09-11T16:28:49.019Z,8.00
2022-09-11T16:31:50.671Z,11.03
2022-09-11T16:34:52.308Z,8.37
2022-09-11T16:37:54.028Z,11.87
2022-09-11T16:41:07.992Z,8.00
2022-09-11T16:44:12.813Z,7.93
2022-09-11T16:47:14.465Z,7.83
2022-09-11T16:50:16.225Z,7.93
2022-09-11T16:53:17.889Z,8.07
2022-09-11T16:56:21.663Z,9.53
2022-09-11T16:59:24.300Z,8.00
2022-09-11T17:02:26.658Z,7.67
2022-09-11T17:05:28.302Z,8.20
2022-09-11T17:08:30.296Z,8.57
2022-09-11T17:11:33.257Z,9.43
2022-09-11T17:14:35.660Z,6.10
2022-09-11T17:17:37.873Z,7.40
2022-09-11T17:20:39.737Z,6.97
2022-09-11T17:23:41.452Z,7.20
2022-09-11T17:26:43.087Z,7.57
2022-09-11T17:29:45.044Z,10.20
2022-09-11T17:32:46.793Z,5.73
2022-09-11T17:35:49.067Z,6.63
2022-09-11T17:38:52.617Z,7.67
2022-09-11T17:41:54.341Z,6.10
2022-09-11T17:44:56.693Z,6.60
2022-09-11T17:47:58.716Z,6.43
2022-09-11T17:51:04.779Z,8.37
2022-09-11T17:54:06.651Z,7.43
2022-09-11T17:57:08.750Z,7.50
2022-09-11T18:00:11.830Z,7.00
2022-09-11T18:03:18.728Z,9.57
2022-09-11T18:06:21.161Z,9.23
2022-09-11T18:09:23.271Z,7.93
2022-09-11T18:12:26.556Z,10.47
2022-09-11T18:15:28.367Z,8.87
2022-09-11T18:18:30.571Z,7.73
2022-09-11T18:21:33.177Z,4.40
2022-09-11T18:24:34.840Z,6.57
2022-09-11T18:27:36.478Z,4.43
2022-09-11T18:30:41.158Z,8.70
2022-09-11T18:33:42.906Z,6.93
2022-09-11T18:36:45.157Z,6.20
2022-09-11T18:39:48.588Z,7.87
2022-09-11T18:42:50.359Z,5.67
2022-09-11T18:45:52.436Z,7.63
2022-09-11T18:48:55.774Z,5.47
2022-09-11T18:52:00.303Z,5.90
2022-09-11T18:59:52.148Z,9.30
2022-09-11T19:03:50.293Z,5.50
2022-09-11T19:07:26.457Z,6.40
2022-09-11T19:10:28.739Z,9.07
2022-09-11T19:13:31.261Z,9.93
2022-09-11T19:16:33.779Z,6.10
2022-09-11T19:19:35.479Z,6.13
2022-09-11T19:22:37.115Z,6.47
2022-09-11T19:25:38.937Z,8.33
2022-09-11T19:28:42.505Z,11.73
2022-09-11T19:31:44.254Z,8.87
2022-09-11T19:34:47.406Z,5.47
2022-09-11T19:37:49.326Z,8.00
2022-09-11T19:49:36.530Z,7.20
2022-09-11T19:52:39.004Z,7.03
2022-09-11T19:55:40.737Z,8.93
2022-09-11T19:58:42.839Z,9.23
2022-09-11T20:01:44.578Z,8.80
2022-09-11T20:04:46.224Z,8.53
2022-09-11T20:07:48.015Z,6.60
2022-09-11T20:10:49.660Z,7.40
2022-09-11T20:13:52.422Z,7.10
2022-09-11T20:16:54.085Z,6.33
2022-09-11T20:19:55.728Z,7.43
2022-09-11T20:23:00.309Z,8.90
2022-09-11T20:26:16.787Z,8.27
2022-09-11T20:29:19.002Z,6.70
2022-09-11T20:32:20.807Z,8.53
2022-09-11T20:35:22.495Z,6.43
2022-09-11T20:38:24.225Z,6.50
2022-09-11T20:41:29.597Z,6.00
2022-09-11T20:44:36.246Z,5.67
2022-09-11T20:47:38.685Z,4.93
2022-09-11T20:50:40.324Z,8.97
2022-09-11T20:53:45.530Z,10.20
2022-09-11T20:56:47.254Z,8.13
2022-09-11T20:59:49.852Z,4.50
2022-09-11T21:02:51.505Z,6.47
2022-09-11T21:05:54.153Z,9.90
2022-09-11T21:09:05.535Z,5.53
2022-09-11T21:12:07.567Z,7.63
2022-09-11T21:15:10.248Z,9.60
2022-09-11T21:18:12.456Z,4.97
2022-09-11T21:21:14.573Z,5.57
2022-09-11T21:24:16.245Z,7.77
2022-09-11T21:27:17.893Z,7.00
2022-09-11T21:30:19.638Z,6.77
2022-09-11T21:33:21.301Z,5.37
2022-09-11T21:36:23.170Z,6.87
2022-09-11T21:39:24.838Z,7.87
2022-09-11T21:42:26.476Z,8.63
2022-09-11T21:45:28.222Z,9.63
2022-09-11T21:48:35.598Z,8.13
2022-09-11T21:51:37.651Z,6.50
2022-09-11T21:54:39.335Z,6.70
2022-09-11T21:57:40.974Z,7.17
2022-09-11T22:00:43.594Z,7.47
2022-09-11T22:03:45.688Z,6.03
2022-09-11T22:06:47.383Z,5.67
2022-09-11T22:09:49.188Z,6.73
2022-09-11T22:12:51.004Z,4.53
2022-09-11T22:15:52.924Z,4.87
2022-09-11T22:18:55.097Z,5.57
2022-09-11T22:21:57.131Z,6.17
2022-09-11T22:24:58.880Z,9.13
2022-09-11T22:28:00.532Z,5.87
2022-09-11T22:31:17.110Z,5.47
2022-09-11T22:34:18.794Z,7.00
2022-09-11T22:37:20.440Z,5.90
2022-09-11T22:40:22.148Z,6.10
2022-09-11T22:43:24.103Z,5.93
2022-09-11T22:46:26.748Z,13.67
2022-09-11T22:49:28.443Z,6.23
2022-09-11T22:52:30.114Z,9.50
2022-09-11T22:55:31.763Z,7.43
2022-09-11T22:58:33.450Z,9.67
2022-09-11T23:01:35.595Z,6.23
2022-09-11T23:04:37.255Z,8.73
2022-09-11T23:07:38.912Z,8.63
2022-09-11T23:10:45.859Z,8.63
2022-09-11T23:13:49.483Z,9.43
2022-09-11T23:16:51.130Z,6.60
2022-09-11T23:19:52.835Z,6.60
2022-09-11T23:22:54.844Z,6.27
2022-09-11T23:25:56.473Z,7.77
2022-09-11T23:28:58.541Z,12.23
2022-09-11T23:32:00.226Z,8.93
2022-09-11T23:35:01.931Z,6.90
2022-09-11T23:38:03.787Z,13.40
2022-09-11T23:41:06.223Z,10.63
2022-09-11T23:44:08.837Z,7.57
2022-09-11T23:47:10.520Z,8.33
2022-09-11T23:50:12.235Z,7.43
2022-09-11T23:53:14.277Z,6.60
2022-09-11T23:56:16.073Z,7.80
2022-09-11T23:59:17.923Z,6.60
